KOAR/OAR METAR and TAF weather

Enter ICAO airport designator
Station Type Date Time Source
KOAR METAR 2021/05/13 00:35 UTC NOAA

KOAR 130035Z AUTO 29011G17KT 10SM CLR 11/08 A3003 RMK AO2


Station Type Date Time Source
KOAR Decoded METAR 2021/05/13 00:35 UTC NOAA

Station name not available
May 12, 2021 - 08:35 PM EDT / 2021.05.13 0035 UTC
Wind: from the WNW (290 degrees) at 13 MPH (11 KT) gusting to 20 MPH (17 KT):0
Visibility: 10 mile(s):0
Sky conditions: clear
Temperature: 51 F (11 C)
Dew Point: 46 F (8 C)
Relative Humidity: 81%
Pressure (altimeter): 30.03 in. Hg (1016 hPa)
ob: KOAR 130035Z AUTO 29011G17KT 10SM CLR 11/08 A3003 RMK AO2
cycle: 0

Station Type Date Time Source
KOAR TAF UTC NOAA

Error!

Example: see airport list